• Join FlightAware (Why Join?)
  • Login
  • US Flag 
Trick or treat! (Boo!!) 
04:23AM EDT


 

Airport Tracker/Info


-or-


 

Live Flight TrackerFlight Track Log ✈ RPA3436 ✈ 27-Jun-2013 ✈ KDCA - KALB

Flight Track Log - Related Links

Times and Time Zones

All times are in EDT time to prevent confusion due to time zone crossing. See the RPA3436 flight status page for this flight to view local times or setup timezone preferences in your user account.

Time Position Orientation Groundspeed Altitude Reporting Facility
EDT Latitude Longitude Course Direction KTS MPH feet Rate Location/Type
10:15AM 38.9247 -77.1125 81° East 229 264 3,400  Level Washington Center
10:16AM 39.0271 -76.5355 67° East  Level FlightAware Approximate
10:16AM 39.0000 -77.1667 331° Northwest 293 337 6,200  Level Potomac TRACON
10:17AM 39.0764 -76.4106 61° Northeast  Level FlightAware Approximate
10:17AM 39.0500 -77.0833 52° Northeast 305 351 8,800  Level Potomac TRACON
10:18AM 39.1167 -76.2837 90° East  Level FlightAware Approximate
10:19AM 39.1556 -76.1607 83° East  Level FlightAware Approximate
10:19AM 39.0669 -76.8856 84° East 328 377 11,700  Level Washington Center
10:20AM 39.1682 -76.0214 81° East  Level FlightAware Approximate
10:20AM 39.0828 -76.7628 81° East 334 384 14,200  Level Washington Center
10:21AM 39.0986 -76.6347 81° East 340 391 15,700 1,620 Climbing Washington Center
10:22AM 39.1142 -76.5092 81° East 351 404 17,500 1,620 Climbing Washington Center
10:23AM 39.1317 -76.3731 81° East 364 419 19,000 1,440 Climbing Washington Center
10:24AM 39.1472 -76.2339 82° East 380 437 20,400 1,380 Climbing Washington Center
10:25AM 39.1625 -76.0922 82° East 390 449 21,800 1,260 Climbing Washington Center
10:26AM 39.1817 -75.9478 80° East 390 449 23,000 1,140 Climbing Washington Center
10:27AM 39.2467 -75.8139 58° Northeast 390 449 24,200 1,080 Climbing Washington Center
10:28AM 39.3217 -75.7178 45° Northeast 396 456 25,200 1,080 Climbing Washington Center
10:29AM 39.4136 -75.5997 45° Northeast 414 476 26,400 900 Climbing Washington Center
10:30AM 39.4989 -75.4867 46° Northeast 424 488 27,000 240 Climbing Washington Center
10:31AM 39.5822 -75.3761 46° Northeast 431 496 27,000  Level Washington Center
10:32AM 39.7222 -75.1864 46° Northeast 430 495 27,000  Level New York Center
10:33AM 39.8039 -75.0647 49° Northeast 430 495 27,000  Level New York Center
10:34AM 39.8853 -74.9506 47° Northeast 430 495 27,000 -480 Level New York Center
10:35AM 39.9664 -74.8361 47° Northeast 430 495 26,100 -1,020 Descending New York Center
10:36AM 40.0542 -74.7083 48° Northeast 425 489 25,000 -600 Descending New York Center
10:37AM 40.1319 -74.6206 41° Northeast 419 482 25,000  Level New York Center
10:38AM 40.2294 -74.5092 41° Northeast 412 474 25,000  Level New York Center
10:39AM 40.3094 -74.4181 41° Northeast 424 488 25,000  Level New York Center
10:40AM 40.4067 -74.3061 41° Northeast 424 488 25,000  Level New York Center
10:41AM 40.4886 -74.2122 41° Northeast 424 488 25,000 -180 Level New York Center
10:43AM 40.6575 -74.0214 41° Northeast 427 491 24,600 -360 Descending Boston Center
10:44AM 40.7422 -73.9219 42° Northeast 415 478 24,000 -300 Descending Boston Center
10:45AM 40.8269 -73.8225 42° Northeast 410 472 24,000  Level Boston Center
10:46AM 40.9114 -73.7200 43° Northeast 410 472 24,000 -420 Level Boston Center
10:47AM 41.0019 -73.6256 38° Northeast 410 472 23,200 -540 Descending Boston Center
10:48AM 41.1028 -73.5556 28° Northeast 410 472 23,000 -120 Descending Boston Center
10:49AM 41.2056 -73.4858 27° Northeast 404 465 23,000 -720 Level Boston Center
10:50AM 41.3042 -73.4183 27° Northeast 404 465 21,600 -1,800 Descending Boston Center
10:51AM 41.4025 -73.3561 25° Northeast 399 459 19,500 -2,160 Descending Boston Center
10:52AM 41.5006 -73.3686 355° North 363 418 17,300 -2,100 Descending Boston Center
10:53AM 41.5897 -73.3950 348° North 353 406 15,300 -2,100 Descending Boston Center
10:54AM 41.6939 -73.4214 349° North 353 406 13,100 -2,100 Descending Boston Center
10:55AM 41.7769 -73.4394 351° North 348 400 11,200 -1,080 Descending Boston Center
10:56AM 41.8767 -73.4689 348° North 330 380 11,000 -120 Descending Boston Center
10:57AM 41.9619 -73.4869 351° North 329 379 11,000  Level Boston Center
10:58AM 42.0119 -73.4992 350° North 329 379 11,000  Level Boston Center
10:58AM 42.0556 -73.5139 346° North 335 386 11,000  Level Boston Center
10:59AM 42.1056 -73.5258 350° North 326 375 11,000  Level Boston Center
11:00AM 42.1953 -73.4967 14° North 331 381 11,000 -480 Level Boston Center
11:01AM 42.2897 -73.4419 23° Northeast 327 376 10,100 -480 Descending Boston Center
11:02AM 42.3858 -73.4097 14° North 303 349 9,900 -600 Descending Boston Center
11:03AM 42.4397 -73.4500 331° Northwest 280 322 8,900 -1,320 Descending Boston Center
11:04AM 42.5058 -73.5047 329° Northwest 279 321 7,600 -960 Descending Boston Center
11:05AM 42.5700 -73.5650 325° Northwest 278 320 7,000 -600 Descending Boston Center
11:06AM 42.6381 -73.6256 327° Northwest 274 315 6,400 -960 Descending Boston Center
11:07AM 42.7064 -73.6719 333° Northwest 273 314 5,100 -1,440 Descending Boston Center
11:08AM 42.7769 -73.6931 348° North 256 295 3,600 -1,500 Descending Boston Center